R.l. Enterkin — WDD9628 — position and weather

sailwx.info

Track history (hours):
 
Tides and Currents Weather Stations Pressure Air Temp Water Temp Dewpoint Dewpoint Depression Visibility Wind Speed Wind Dir Waves Ship Positions

R.l. Enterkin

Owner: Great Lakes Dredge & Dock Company, LLC., Oak Brook, IL. More information available from US FCC via Universal Licensing System and Coast Guard Vessel Documentation Center.

Last reported at 2015-Sep-04 07:33 UTC. Time now 2015-Sep-04 07:55 UTC.
Position N 38°57' W 074°54'.

MMSI: 367314080.

Date/timePositionNaut miles runAvg speedWind from/ knotsBaromVisibWave heightAir tempDewpointWater temp
2015-Sep-04 07:33N 38°57' W 074°54'0 0.0
2015-Sep-04 06:34N 38°57' W 074°54'0 0.0
2015-Sep-04 05:34N 38°57' W 074°54'0 0.0
2015-Sep-04 04:33N 38°57' W 074°54'1 1.4
2015-Sep-04 03:34N 38°57' W 074°52'1 1.4
2015-Sep-04 02:33N 38°57' W 074°54'0 0.0
2015-Sep-04 01:33N 38°57' W 074°54'0 0.0
2015-Sep-04 00:34N 38°57' W 074°54'0 0.0
2015-Sep-03 23:21N 38°57' W 074°54'1 0.3
2015-Sep-03 19:24N 38°57' W 074°53'15 2.6
2015-Sep-03 13:31N 39°09' W 074°40'0 0.0
2015-Sep-03 12:33N 39°09' W 074°40'2 1.3
2015-Sep-03 11:11N 39°09' W 074°38'1 2.4
2015-Sep-03 10:34N 39°08' W 074°39'0 0.3
2015-Sep-03 09:33N 39°09' W 074°39'5 4.9
2015-Sep-03 08:33N 39°04' W 074°42'7 6.6
2015-Sep-03 07:33N 38°59' W 074°46'5 5.1
2015-Sep-03 06:33N 38°57' W 074°52'0 0.2
2015-Sep-03 05:33N 38°57' W 074°53'0 0.0
2015-Sep-03 04:16N 38°57' W 074°53'0 0.0
2015-Sep-03 03:33N 38°57' W 074°53'0 0.0
2015-Sep-03 02:30N 38°57' W 074°53'0 0.0
2015-Sep-03 01:33N 38°57' W 074°53'0 0.0
2015-Sep-03 00:33N 38°57' W 074°53'0 0.0
2015-Sep-02 23:33N 38°57' W 074°53'0 0.0
2015-Sep-02 22:33N 38°57' W 074°53'0 0.0
2015-Sep-02 21:33N 38°57' W 074°53'0 0.0
2015-Sep-02 20:31N 38°57' W 074°53'0 0.0
2015-Sep-02 19:33N 38°57' W 074°53'0 0.0
2015-Sep-02 15:29N 38°57' W 074°53'0 0.0
2015-Sep-02 14:32N 38°57' W 074°53'0 0.0
2015-Sep-02 13:27N 38°57' W 074°53'0 0.0
2015-Sep-02 12:33N 38°57' W 074°53'0 0.0
2015-Sep-02 11:33N 38°57' W 074°53'0 0.0
2015-Sep-02 10:33N 38°57' W 074°53'0 0.0
2015-Sep-02 09:16N 38°57' W 074°53'0 0.0
2015-Sep-02 08:33N 38°57' W 074°53'0 0.0
2015-Sep-02 07:33N 38°57' W 074°53'0 0.0
2015-Sep-02 06:29N 38°57' W 074°53'0 0.0
2015-Sep-02 05:34N 38°57' W 074°53'0 0.0
2015-Sep-02 04:31N 38°57' W 074°53'0 0.0
2015-Sep-02 03:06N 38°57' W 074°53'0 0.0
2015-Sep-02 02:09N 38°57' W 074°53'0 0.0
2015-Sep-02 01:30N 38°57' W 074°53'0 0.0
2015-Sep-01 23:33N 38°57' W 074°53'0 0.0
2015-Sep-01 22:33N 38°57' W 074°53'0 0.0
2015-Sep-01 21:30N 38°57' W 074°53'0 0.1
2015-Sep-01 18:16N 38°57' W 074°53'1 0.4
2015-Sep-01 16:12N 38°57' W 074°54'1 0.4
2015-Sep-01 12:25N 38°57' W 074°52'0 0.0
2015-Sep-01 11:34N 38°57' W 074°53'0 0.0
2015-Sep-01 10:33N 38°57' W 074°52'0 0.0
2015-Sep-01 03:22N 38°57' W 074°52'0 0.0
2015-Aug-31 21:10N 38°57' W 074°52'0 0.1
2015-Aug-31 17:33N 38°57' W 074°52'17 3.4
2015-Aug-31 12:33N 39°10' W 074°38'0 0.0
2015-Aug-31 07:05N 39°10' W 074°38'0 0.0
2015-Aug-31 06:32N 39°10' W 074°38'0 0.0
2015-Aug-31 05:33N 39°10' W 074°38'0 0.0
2015-Aug-31 04:33N 39°10' W 074°38'0 0.0
2015-Aug-31 03:33N 39°10' W 074°38'0 0.0
2015-Aug-31 02:30N 39°10' W 074°38'0 0.0
2015-Aug-31 01:31N 39°10' W 074°38'0 0.0
2015-Aug-30 23:33N 39°10' W 074°38'0 0.0
2015-Aug-30 12:20N 39°09' W 074°38'0 0.2
2015-Aug-30 11:33N 39°09' W 074°38'0 0.0
2015-Aug-30 10:34N 39°09' W 074°38'0 0.0
2015-Aug-30 09:33N 39°09' W 074°38'0 0.0
2015-Aug-30 08:33N 39°09' W 074°38'0 0.0
2015-Aug-30 07:33N 39°09' W 074°38'0 0.0
2015-Aug-30 06:34N 39°09' W 074°38'0 0.0
2015-Aug-30 05:20N 39°09' W 074°38'0 0.0
2015-Aug-30 03:05N 39°09' W 074°38'0 0.0
2015-Aug-29 23:33N 39°09' W 074°38'0 0.0
2015-Aug-29 17:20N 39°09' W 074°38'0 0.0
2015-Aug-28 12:33N 39°10' W 074°38'0 0.0
2015-Aug-27 05:24N 39°10' W 074°38'0 0.0
2015-Aug-26 10:33N 39°10' W 074°38'0 0.0
2015-Aug-26 09:33N 39°10' W 074°38'0 0.0
2015-Aug-26 08:07N 39°09' W 074°38'0 0.0
2015-Aug-26 04:26N 39°09' W 074°38'  
Track history (hours):
 
Tides and Currents Weather Stations Pressure Air Temp Water Temp Dewpoint Dewpoint Depression Visibility Wind Speed Wind Dir Waves Ship Positions

R.l. Enterkin

Owner: Great Lakes Dredge & Dock Company, LLC., Oak Brook, IL. More information available from US FCC via Universal Licensing System and Coast Guard Vessel Documentation Center.

Last reported at 2015-Sep-04 07:33 UTC. Time now 2015-Sep-04 07:55 UTC.
Position N 38°57' W 074°54'.

MMSI: 367314080.

Date/timePositionNaut miles runAvg speedWind from/ knotsBaromVisibWave heightAir tempDewpointWater temp
2015-Sep-04 07:33N 38°57' W 074°54'0 0.0
2015-Sep-04 06:34N 38°57' W 074°54'0 0.0
2015-Sep-04 05:34N 38°57' W 074°54'0 0.0
2015-Sep-04 04:33N 38°57' W 074°54'1 1.4
2015-Sep-04 03:34N 38°57' W 074°52'1 1.4
2015-Sep-04 02:33N 38°57' W 074°54'0 0.0
2015-Sep-04 01:33N 38°57' W 074°54'0 0.0
2015-Sep-04 00:34N 38°57' W 074°54'0 0.0
2015-Sep-03 23:21N 38°57' W 074°54'1 0.3
2015-Sep-03 19:24N 38°57' W 074°53'15 2.6
2015-Sep-03 13:31N 39°09' W 074°40'0 0.0
2015-Sep-03 12:33N 39°09' W 074°40'2 1.3
2015-Sep-03 11:11N 39°09' W 074°38'1 2.4
2015-Sep-03 10:34N 39°08' W 074°39'0 0.3
2015-Sep-03 09:33N 39°09' W 074°39'5 4.9
2015-Sep-03 08:33N 39°04' W 074°42'7 6.6
2015-Sep-03 07:33N 38°59' W 074°46'5 5.1
2015-Sep-03 06:33N 38°57' W 074°52'0 0.2
2015-Sep-03 05:33N 38°57' W 074°53'0 0.0
2015-Sep-03 04:16N 38°57' W 074°53'0 0.0
2015-Sep-03 03:33N 38°57' W 074°53'0 0.0
2015-Sep-03 02:30N 38°57' W 074°53'0 0.0
2015-Sep-03 01:33N 38°57' W 074°53'0 0.0
2015-Sep-03 00:33N 38°57' W 074°53'0 0.0
2015-Sep-02 23:33N 38°57' W 074°53'0 0.0
2015-Sep-02 22:33N 38°57' W 074°53'0 0.0
2015-Sep-02 21:33N 38°57' W 074°53'0 0.0
2015-Sep-02 20:31N 38°57' W 074°53'0 0.0
2015-Sep-02 19:33N 38°57' W 074°53'0 0.0
2015-Sep-02 15:29N 38°57' W 074°53'0 0.0
2015-Sep-02 14:32N 38°57' W 074°53'0 0.0
2015-Sep-02 13:27N 38°57' W 074°53'0 0.0
2015-Sep-02 12:33N 38°57' W 074°53'0 0.0
2015-Sep-02 11:33N 38°57' W 074°53'0 0.0
2015-Sep-02 10:33N 38°57' W 074°53'0 0.0
2015-Sep-02 09:16N 38°57' W 074°53'0 0.0
2015-Sep-02 08:33N 38°57' W 074°53'0 0.0
2015-Sep-02 07:33N 38°57' W 074°53'0 0.0
2015-Sep-02 06:29N 38°57' W 074°53'0 0.0
2015-Sep-02 05:34N 38°57' W 074°53'0 0.0
2015-Sep-02 04:31N 38°57' W 074°53'0 0.0
2015-Sep-02 03:06N 38°57' W 074°53'0 0.0
2015-Sep-02 02:09N 38°57' W 074°53'0 0.0
2015-Sep-02 01:30N 38°57' W 074°53'0 0.0
2015-Sep-01 23:33N 38°57' W 074°53'0 0.0
2015-Sep-01 22:33N 38°57' W 074°53'0 0.0
2015-Sep-01 21:30N 38°57' W 074°53'0 0.1
2015-Sep-01 18:16N 38°57' W 074°53'1 0.4
2015-Sep-01 16:12N 38°57' W 074°54'1 0.4
2015-Sep-01 12:25N 38°57' W 074°52'0 0.0
2015-Sep-01 11:34N 38°57' W 074°53'0 0.0
2015-Sep-01 10:33N 38°57' W 074°52'0 0.0
2015-Sep-01 03:22N 38°57' W 074°52'0 0.0
2015-Aug-31 21:10N 38°57' W 074°52'0 0.1
2015-Aug-31 17:33N 38°57' W 074°52'17 3.4
2015-Aug-31 12:33N 39°10' W 074°38'0 0.0
2015-Aug-31 07:05N 39°10' W 074°38'0 0.0
2015-Aug-31 06:32N 39°10' W 074°38'0 0.0
2015-Aug-31 05:33N 39°10' W 074°38'0 0.0
2015-Aug-31 04:33N 39°10' W 074°38'0 0.0
2015-Aug-31 03:33N 39°10' W 074°38'0 0.0
2015-Aug-31 02:30N 39°10' W 074°38'0 0.0
2015-Aug-31 01:31N 39°10' W 074°38'0 0.0
2015-Aug-30 23:33N 39°10' W 074°38'0 0.0
2015-Aug-30 12:20N 39°09' W 074°38'0 0.2
2015-Aug-30 11:33N 39°09' W 074°38'0 0.0
2015-Aug-30 10:34N 39°09' W 074°38'0 0.0
2015-Aug-30 09:33N 39°09' W 074°38'0 0.0
2015-Aug-30 08:33N 39°09' W 074°38'0 0.0
2015-Aug-30 07:33N 39°09' W 074°38'0 0.0
2015-Aug-30 06:34N 39°09' W 074°38'0 0.0
2015-Aug-30 05:20N 39°09' W 074°38'0 0.0
2015-Aug-30 03:05N 39°09' W 074°38'0 0.0
2015-Aug-29 23:33N 39°09' W 074°38'0 0.0
2015-Aug-29 17:20N 39°09' W 074°38'0 0.0
2015-Aug-28 12:33N 39°10' W 074°38'0 0.0
2015-Aug-27 05:24N 39°10' W 074°38'0 0.0
2015-Aug-26 10:33N 39°10' W 074°38'0 0.0
2015-Aug-26 09:33N 39°10' W 074°38'0 0.0
2015-Aug-26 08:07N 39°09' W 074°38'0 0.0
2015-Aug-26 04:26N 39°09' W 074°38'  

Dump ship's entire track history